Oak Grove, Wisconsin
Current Conditions -  °F | °C
As of 2:10 AM on Monday 24 Nov 2014 (Local Time) from KSGS Reporting Station
Light Snow Light Snow  
Wind Chill: 23°   Ceiling: 1500
Heat Index: 32°   Visibility: 4mi
Dew Point: 30°   Wind: 12mph
Humidity: 91%   Direction: 310°NW
Pressure: 29.3"   Gusts: 18mph
Location:  44.7392°N, 92.6641°W
Report Text: KSGS 240810Z AUTO 31010G16KT 4SM -SN OVC015 00/M01 A2930 RMK AO2 T00021011
Loading
Personal Weather Stations






























Interactive Weather Map New forecast layout! Learn more

10-Day Weather Forecast

Advertisements
Track Severe Weather on mobile